Ana Sayfa
METAR-TAF:

METAR-TAF

Havaalanları :

Nalçik Havalimanı

Nalçik, Rusya

Enlem: 43-30-46N, Boylam: 043-38-12E, yükseklik: 445 m

Güncel hava durumu gözlemi

Rapor saat 11:00 UTC de 27 dakika önce yapıldı.
Rüzgar kuzey/kuzeydoğudan 8 kt
Sıcaklık 14°C
Nem 47%
Basınç 1019 hPa
Görüş mesafesi 10 km veya daha fazla

METAR: URMN 211100Z 02004MPS 9999 NSC 14/03 Q1019 R24/010070 NOSIG RMK QFE727

Saat: 14:27 (11:27 UTC)

Tahmin

Rapor saat 08:00 UTC de 3 saat ve 27 dakika önce yapıldı.
Ayın 21'si saat 09 UTC'den ayın 21'si saat 18 UTC'ye kadar geçerli Tahmin
Rüzgar kuzey/kuzeydoğudan 6 kt
Görüş mesafesi 10 km veya daha fazla
2000 ft yükseklikte parçalı bulutlu

TAF: URMN 210800Z 2109/2118 02003MPS 9999 SCT020

4.000'den fazla havaalanı için hava durumu gözlemleri ve tahminleri (METAR ve TAF raporları).

Kullanılabilir istasyonlar harita üzerinde sarı ve kırmızı noktalarla gösterilir.

İstasyonun adını görmek için fareyi noktanın üzerinde gezdirin.

Sonrasında hava gözlem ve tahminlerini görmek için tıklayın.

Haritayı değiştirmek için: yaklaştırmak için siyah artı işaretli yeşil düğmeye ve uzaklaştırmak için de eksi işaretli düğmeye hızla tıklayın; bitişik haritalar için yeşil okları kullanın.


METAR-TAF: